Time;durP1;ratioP1;P1;durP2;ratioP2;P2;SDS_P1;SDS_P2;PMS_P1;PMS_P2;Temp;Humidity;BMP_temperature;BMP_pressure;BME280_temperature;BME280_humidity;BME280_pressure;Samples;Min_cycle;Max_cycle;Signal;HPM_P1;HPM_P2
2022/06/16 00:00:58;;;;;;;8.55;5.80;;;;;;;15.66;100.00;63613.56;5092619;28;20493;-77
2022/06/16 00:03:25;;;;;;;7.63;5.70;;;;;;;15.63;100.00;63615.59;5105043;28;20475;-77
2022/06/16 00:05:52;;;;;;;6.35;5.63;;;;;;;15.67;100.00;63620.25;5105338;28;20236;-78
2022/06/16 00:08:20;;;;;;;6.78;5.68;;;;;;;15.62;100.00;63615.06;5105789;28;20219;-77
2022/06/16 00:13:30;;;;;;;7.53;6.82;;;;;;;15.60;100.00;63612.97;5105440;28;20206;-77
2022/06/16 00:16:00;;;;;;;7.65;6.88;;;;;;;15.65;100.00;63620.25;5105106;28;20208;-78
2022/06/16 00:18:27;;;;;;;13.25;7.80;;;;;;;15.62;100.00;63614.53;5102725;28;20196;-79
2022/06/16 00:20:54;;;;;;;9.20;8.30;;;;;;;15.61;100.00;63616.59;5105036;28;20303;-78
2022/06/16 00:23:22;;;;;;;7.85;7.18;;;;;;;15.62;100.00;63617.09;5105944;28;20199;-78
2022/06/16 00:25:49;;;;;;;11.60;7.68;;;;;;;15.64;100.00;63616.63;5105930;28;20235;-79
2022/06/16 00:28:15;;;;;;;8.18;7.00;;;;;;;15.65;100.00;63620.25;5099461;28;20266;-78
2022/06/16 00:30:43;;;;;;;11.18;7.38;;;;;;;15.61;100.00;63614.03;5085922;28;20225;-78
2022/06/16 00:33:11;;;;;;;8.30;7.50;;;;;;;15.61;100.00;63616.06;5088350;28;20505;-77
2022/06/16 00:35:38;;;;;;;10.95;8.30;;;;;;;15.58;100.00;63608.34;5108921;28;20224;-77
2022/06/16 00:38:05;;;;;;;9.82;7.80;;;;;;;15.53;100.00;63607.75;5112703;28;20535;-77
2022/06/16 00:40:32;;;;;;;10.32;8.80;;;;;;;15.56;100.00;63608.84;5110773;28;20219;-79
2022/06/16 00:43:00;;;;;;;8.77;7.85;;;;;;;15.56;100.00;63608.31;5111274;28;20299;-77
2022/06/16 00:45:50;;;;;;;9.10;8.20;;;;;;;15.50;100.00;63605.16;5103357;28;20230;-78
2022/06/16 00:48:23;;;;;;;7.80;7.13;;;;;;;15.45;100.00;63594.81;5097779;28;20204;-77
2022/06/16 00:50:56;;;;;;;8.13;7.40;;;;;;;15.43;100.00;63600.44;5084161;28;20223;-78
2022/06/16 00:53:24;;;;;;;9.10;7.63;;;;;;;15.40;100.00;63589.63;5101842;28;20255;-78
2022/06/16 00:55:52;;;;;;;7.90;7.10;;;;;;;15.37;100.00;63583.41;5105938;28;20224;-78
2022/06/16 00:58:20;;;;;;;7.60;7.00;;;;;;;15.31;100.00;63584.84;5109828;28;20200;-78
2022/06/16 01:00:47;;;;;;;12.20;8.63;;;;;;;15.26;100.00;63579.66;5091853;28;20276;-79
2022/06/16 01:04:51;;;;;;;8.38;7.57;;;;;;;15.33;100.00;63586.94;5090339;28;20196;-77
2022/06/16 01:06:17;;;;;;;9.07;8.23;;;;;;;15.28;100.00;63581.75;5105255;28;20294;-78
2022/06/16 01:08:45;;;;;;;14.88;9.00;;;;;;;15.16;100.00;63566.72;5105699;28;20203;-79
2022/06/16 01:13:41;;;;;;;9.10;7.97;;;;;;;15.18;100.00;63571.88;5105801;28;20216;-78
2022/06/16 01:14:12;;;;;;;8.25;7.50;;;;;;;15.06;100.00;63554.78;5094076;28;20195;-79
2022/06/16 01:16:46;;;;;;;9.95;8.00;;;;;;;14.96;100.00;63549.53;5101241;28;20255;-79
2022/06/16 01:19:33;;;;;;;9.05;8.15;;;;;;;14.96;100.00;63549.53;5106983;28;20219;-77
2022/06/16 01:22:09;;;;;;;9.38;8.57;;;;;;;14.96;100.00;63549.53;5103621;28;21481;-81
2022/06/16 01:24:54;;;;;;;12.25;9.27;;;;;;;15.01;100.00;63552.16;5106184;28;20224;-78
2022/06/16 01:27:46;;;;;;;14.70;9.43;;;;;;;14.97;100.00;63542.88;5104101;28;20211;-78
2022/06/16 01:30:17;;;;;;;9.95;8.45;;;;;;;15.03;100.00;63551.69;5106874;28;20215;-79
2022/06/16 01:32:50;;;;;;;12.85;10.00;;;;;;;15.01;100.00;63552.16;5105684;28;20196;-79
2022/06/16 01:35:26;;;;;;;11.65;10.50;;;;;;;15.09;100.00;63559.97;5095961;28;20212;-79
2022/06/16 01:38:02;;;;;;;12.38;10.50;;;;;;;15.13;100.00;63564.13;5106090;28;20187;-78
2022/06/16 01:40:33;;;;;;;10.23;8.95;;;;;;;15.15;100.00;63568.25;5103127;28;20254;-78
2022/06/16 01:43:06;;;;;;;10.25;9.25;;;;;;;15.11;100.00;63564.09;5106017;28;20212;-78
2022/06/16 01:45:41;;;;;;;11.48;10.27;;;;;;;15.21;100.00;63571.91;5104818;28;20540;-78
2022/06/16 01:48:11;;;;;;;13.85;10.52;;;;;;;15.12;100.00;63562.56;5106999;28;20242;-78
2022/06/16 01:50:44;;;;;;;14.10;12.20;;;;;;;15.01;100.00;63546.53;5103252;28;20224;-78
2022/06/16 01:53:16;;;;;;;14.18;11.85;;;;;;;14.99;100.00;63549.56;5106709;28;20196;-78
2022/06/16 01:55:49;;;;;;;22.02;12.98;;;;;;;14.84;100.00;63537.06;5107635;28;20227;-79
2022/06/16 01:58:20;;;;;;;15.55;13.00;;;;;;;14.78;100.00;63532.88;5108759;28;20257;-76
2022/06/16 02:00:52;;;;;;;18.90;13.43;;;;;;;14.85;100.00;63535.03;5109982;28;20250;-76
2022/06/16 02:03:24;;;;;;;16.48;13.98;;;;;;;14.84;100.00;63534.50;5105686;28;20420;-78
2022/06/16 02:05:55;;;;;;;20.15;14.40;;;;;;;14.83;100.00;63530.38;5104093;28;20391;-78
2022/06/16 02:08:25;;;;;;;15.85;13.50;;;;;;;14.80;100.00;63538.03;5102705;28;20195;-78
2022/06/16 02:10:56;;;;;;;17.38;13.82;;;;;;;14.72;100.00;63526.66;5104363;28;20783;-79
2022/06/16 02:13:29;;;;;;;17.48;13.65;;;;;;;14.75;100.00;63527.72;5105020;28;20194;-79
2022/06/16 02:16:02;;;;;;;18.80;12.75;;;;;;;14.71;100.00;63517.91;5103429;28;20315;-78
2022/06/16 02:18:35;;;;;;;18.77;14.38;;;;;;;14.75;100.00;63522.06;5104509;28;20188;-79
2022/06/16 02:21:09;;;;;;;19.42;14.85;;;;;;;14.78;100.00;63530.84;5106258;28;20235;-78
2022/06/16 02:23:36;;;;;;;21.42;15.15;;;;;;;14.76;100.00;63528.75;5104738;28;20196;-78
2022/06/16 02:26:03;;;;;;;17.23;14.70;;;;;;;14.81;100.00;63533.94;5095290;28;20535;-80
2022/06/16 02:28:30;;;;;;;18.02;15.05;;;;;;;14.83;100.00;63532.94;5105760;28;20218;-78
2022/06/16 02:31:11;;;;;;;18.15;14.45;;;;;;;14.85;100.00;63535.03;5105460;28;20224;-79
2022/06/16 02:33:47;;;;;;;15.73;13.48;;;;;;;14.80;100.00;63529.84;5089337;28;20266;-79
2022/06/16 02:36:28;;;;;;;20.58;15.48;;;;;;;14.66;100.00;63513.25;5103112;28;20247;-78
2022/06/16 02:39:07;;;;;;;30.90;20.90;;;;;;;14.60;100.00;63512.13;5103979;28;20214;-77
2022/06/16 02:41:43;;;;;;;23.10;17.42;;;;;;;14.38;100.00;63486.19;5096541;28;20197;-78
2022/06/16 02:44:18;;;;;;;20.42;16.77;;;;;;;14.46;100.00;63495.03;5091641;28;20200;-78
2022/06/16 02:46:59;;;;;;;21.98;17.15;;;;;;;14.49;100.00;63500.72;5103463;28;20265;-79
2022/06/16 02:49:35;;;;;;;21.10;16.55;;;;;;;14.37;100.00;63487.72;5105841;28;20216;-79
2022/06/16 02:52:14;;;;;;;21.05;15.77;;;;;;;14.51;100.00;63507.41;5105029;28;20199;-79
2022/06/16 02:54:47;;;;;;;17.33;14.55;;;;;;;14.39;100.00;63482.63;5108073;28;20226;-79
2022/06/16 02:57:20;;;;;;;23.35;14.93;;;;;;;14.34;100.00;63477.44;5110030;28;20489;-79
2022/06/16 02:59:51;;;;;;;23.48;15.57;;;;;;;14.48;100.00;63499.66;5109698;28;20216;-79
2022/06/16 03:02:21;;;;;;;17.52;13.15;;;;;;;14.58;100.00;63504.91;5106506;28;20200;-79
2022/06/16 03:04:50;;;;;;;19.90;14.20;;;;;;;14.61;100.00;63513.19;5108916;28;20244;-79
2022/06/16 03:07:18;;;;;;;19.77;14.95;;;;;;;14.56;100.00;63505.44;5108865;28;20236;-78
2022/06/16 03:09:46;;;;;;;17.05;14.27;;;;;;;14.51;100.00;63497.66;5109132;28;20216;-79
2022/06/16 03:12:15;;;;;;;14.75;12.88;;;;;;;14.32;100.00;63485.63;5107250;28;20206;-80
2022/06/16 03:14:43;;;;;;;16.67;13.45;;;;;;;14.41;100.00;63487.28;5108788;28;20214;-79
2022/06/16 03:17:12;;;;;;;16.77;14.38;;;;;;;14.48;100.00;63496.59;5109207;28;20465;-78
2022/06/16 03:19:41;;;;;;;17.48;13.85;;;;;;;14.56;100.00;63502.34;5107308;28;20604;-80
2022/06/16 03:22:08;;;;;;;17.08;13.07;;;;;;;14.73;100.00;63520.00;5097626;28;20219;-79
2022/06/16 03:24:34;;;;;;;17.60;14.60;;;;;;;14.90;100.00;63537.66;5109349;28;20224;-80
2022/06/16 03:27:02;;;;;;;14.57;13.07;;;;;;;15.03;100.00;63558.84;5108496;28;20322;-80
2022/06/16 03:29:29;;;;;;;16.52;13.23;;;;;;;15.04;100.00;63552.19;5106354;28;20235;-79
2022/06/16 03:31:56;;;;;;;15.18;12.43;;;;;;;15.30;100.00;63586.41;5107758;28;20365;-80
2022/06/16 03:34:23;;;;;;;14.35;12.85;;;;;;;15.29;100.00;63582.78;5101549;28;20224;-80
2022/06/16 03:36:52;;;;;;;15.25;13.65;;;;;;;15.43;100.00;63594.81;5088786;28;20192;-80
2022/06/16 03:39:19;;;;;;;15.73;13.05;;;;;;;15.50;100.00;63602.06;5096606;28;20224;-78
2022/06/16 03:41:47;;;;;;;18.52;13.40;;;;;;;15.54;100.00;63609.31;5095176;28;20204;-79
2022/06/16 03:44:13;;;;;;;18.95;14.77;;;;;;;15.61;100.00;63618.63;5092032;28;20224;-78
2022/06/16 03:46:40;;;;;;;18.10;15.00;;;;;;;15.69;100.00;63617.22;5096141;28;20237;-78
2022/06/16 03:49:07;;;;;;;18.67;14.25;;;;;;;15.76;100.00;63629.09;5113792;28;20204;-79
2022/06/16 03:51:35;;;;;;;20.75;15.45;;;;;;;15.74;100.00;63624.97;5114274;28;20196;-80
2022/06/16 03:54:03;;;;;;;21.30;16.15;;;;;;;15.84;100.00;63634.88;5110975;28;20234;-79
2022/06/16 03:56:30;;;;;;;21.75;15.73;;;;;;;15.95;100.00;63651.94;5110087;28;20208;-80
2022/06/16 03:58:58;;;;;;;19.45;16.27;;;;;;;16.14;100.00;63669.13;5109832;28;20213;-80
2022/06/16 04:01:25;;;;;;;20.60;12.80;;;;;;;16.26;100.00;63680.56;5112776;28;20192;-78
2022/06/16 04:04:01;;;;;;;13.43;11.27;;;;;;;16.08;100.00;63664.97;5105555;28;20205;-79
2022/06/16 04:06:30;;;;;;;14.13;12.00;;;;;;;15.92;100.00;63648.84;5105402;28;20195;-79
2022/06/16 04:08:57;;;;;;;14.38;10.90;;;;;;;15.76;100.00;63629.63;5109373;28;20192;-80
2022/06/16 04:11:30;;;;;;;15.82;11.50;;;;;;;15.73;100.00;63625.97;5108957;28;20253;-78
2022/06/16 04:14:02;;;;;;;16.98;11.43;;;;;;;15.83;100.00;63636.38;5105458;28;20205;-79
2022/06/16 04:16:32;;;;;;;14.48;11.00;;;;;;;15.90;100.00;63646.22;5105775;28;20230;-79
2022/06/16 04:18:59;;;;;;;14.45;10.90;;;;;;;15.82;100.00;63633.31;5099771;28;20200;-79
2022/06/16 04:21:26;;;;;;;12.40;11.20;;;;;;;15.69;100.00;63624.91;5101710;28;20386;-79
2022/06/16 04:23:54;;;;;;;14.75;11.95;;;;;;;15.80;100.00;63633.78;5106923;28;20262;-79
2022/06/16 04:26:21;;;;;;;11.82;10.68;;;;;;;15.93;100.00;63646.78;5106613;28;20216;-79
2022/06/16 04:28:50;;;;;;;13.00;10.27;;;;;;;15.87;100.00;63641.06;5103721;28;20282;-79
2022/06/16 04:31:17;;;;;;;15.73;11.57;;;;;;;15.87;100.00;63635.94;5106363;28;20211;-80
2022/06/16 04:33:44;;;;;;;14.68;10.77;;;;;;;15.82;100.00;63632.78;5099695;28;20188;-79
2022/06/16 04:36:14;;;;;;;13.10;10.93;;;;;;;15.75;100.00;63630.63;5085435;28;20227;-79
2022/06/16 04:38:41;;;;;;;12.30;11.02;;;;;;;15.99;100.00;63650.44;5098610;28;20200;-79
2022/06/16 04:41:08;;;;;;;11.73;10.52;;;;;;;16.04;100.00;63658.22;5103081;28;20223;-78
2022/06/16 04:43:35;;;;;;;15.60;12.15;;;;;;;16.00;100.00;63657.16;5103728;28;20259;-79
2022/06/16 04:46:05;;;;;;;16.50;10.70;;;;;;;15.98;100.00;63649.41;5090096;28;20239;-79
2022/06/16 04:48:33;;;;;;;12.55;11.27;;;;;;;15.94;100.00;63648.34;5100209;28;20544;-79
2022/06/16 04:51:00;;;;;;;14.80;11.43;;;;;;;16.19;100.00;63679.47;5105715;28;20258;-79
2022/06/16 04:53:27;;;;;;;16.00;10.80;;;;;;;16.40;100.00;63690.00;5108886;28;20195;-79
2022/06/16 04:55:55;;;;;;;22.75;11.45;;;;;;;16.41;100.00;63701.34;5109072;28;20212;-79
2022/06/16 04:58:23;;;;;;;19.38;11.65;;;;;;;16.47;100.00;63702.44;5106527;28;20195;-79
2022/06/16 05:00:51;;;;;;;14.95;12.02;;;;;;;16.51;100.00;63704.56;5104215;28;20220;-79
2022/06/16 05:03:22;;;;;;;15.45;11.85;;;;;;;16.74;100.00;63731.06;5105919;28;20187;-79
2022/06/16 05:05:50;;;;;;;14.90;12.10;;;;;;;16.62;100.00;63716.00;5096577;28;20223;-80
2022/06/16 05:08:18;;;;;;;16.92;12.93;;;;;;;16.83;100.00;63743.00;5104438;28;20426;-78
2022/06/16 05:10:46;;;;;;;15.52;12.93;;;;;;;16.92;100.00;63749.28;5101862;28;20546;-78
2022/06/16 05:13:14;;;;;;;18.33;12.48;;;;;;;16.73;100.00;63737.75;5104696;28;20207;-78
2022/06/16 05:15:41;;;;;;;19.20;12.52;;;;;;;16.78;100.00;63739.84;5106224;28;20272;-78
2022/06/16 05:18:12;;;;;;;17.17;12.38;;;;;;;16.83;100.00;63739.91;5105820;28;20195;-78
2022/06/16 05:20:41;;;;;;;22.33;14.02;;;;;;;16.82;100.00;63741.44;5105951;28;20223;-78
2022/06/16 05:23:09;;;;;;;14.35;12.07;;;;;;;17.12;100.00;63772.66;5106422;28;20570;-79
2022/06/16 05:25:36;;;;;;;13.73;11.73;;;;;;;17.46;100.00;63800.38;5106430;28;20217;-79
2022/06/16 05:28:03;;;;;;;16.83;13.65;;;;;;;17.58;100.00;63812.34;5105224;28;20282;-78
2022/06/16 05:30:32;;;;;;;15.20;13.43;;;;;;;17.70;100.00;63825.34;5105457;28;20282;-79
2022/06/16 05:32:59;;;;;;;17.05;12.50;;;;;;;17.56;100.00;63815.41;5090782;28;20249;-79
2022/06/16 05:35:26;;;;;;;21.33;13.25;;;;;;;17.55;100.00;63812.28;5088077;28;20220;-79
2022/06/16 05:37:55;;;;;;;14.95;12.60;;;;;;;17.62;100.00;63821.66;5089837;28;20196;-80
2022/06/16 05:40:21;;;;;;;18.63;14.02;;;;;;;17.54;100.00;63813.31;5087677;28;20282;-79
2022/06/16 05:42:48;;;;;;;18.80;13.93;;;;;;;17.69;100.00;63826.88;5087468;28;20524;-79
2022/06/16 05:45:15;;;;;;;17.35;14.95;;;;;;;17.85;100.00;63846.13;5100630;28;20565;-79
2022/06/16 05:47:42;;;;;;;23.83;16.20;;;;;;;17.89;100.00;63847.72;5105993;28;20266;-78
2022/06/16 05:50:10;;;;;;;21.58;15.23;;;;;;;17.93;100.00;63856.53;5104629;28;20219;-78
2022/06/16 05:52:37;;;;;;;20.70;15.90;;;;;;;17.82;100.00;63843.00;5100618;28;20196;-79
2022/06/16 05:55:06;;;;;;;23.13;16.17;;;;;;;17.84;100.00;63844.56;5086782;28;20219;-79
2022/06/16 05:57:33;;;;;;;23.58;16.40;;;;;;;18.05;100.00;63866.94;5087399;28;20199;-79
2022/06/16 06:00:00;;;;;;;19.40;14.98;;;;;;;18.28;100.00;63888.34;5089391;28;20284;-79
2022/06/16 06:02:27;;;;;;;22.27;16.48;;;;;;;18.42;100.00;63902.94;5100412;28;20207;-79
2022/06/16 06:04:54;;;;;;;22.95;16.05;;;;;;;18.40;100.00;63906.03;5106421;28;20268;-78
2022/06/16 06:07:21;;;;;;;21.02;15.27;;;;;;;18.42;100.00;63907.59;5108035;28;20195;-78
2022/06/16 06:18:16;;;;;;;21.63;15.10;;;;;;;18.71;100.00;63937.81;5105215;28;20198;-80
2022/06/16 06:20:45;;;;;;;19.00;14.63;;;;;;;19.03;100.00;63963.44;5103336;28;20222;-79
2022/06/16 06:23:12;;;;;;;20.17;15.32;;;;;;;19.17;100.00;63980.59;5105180;28;20445;-78
2022/06/16 06:25:42;;;;;;;19.20;14.55;;;;;;;19.30;100.00;63994.19;5106875;28;20215;-81
2022/06/16 06:28:16;;;;;;;19.75;14.57;;;;;;;19.28;100.00;63996.69;5110846;28;20256;-78
2022/06/16 06:30:43;;;;;;;21.45;14.95;;;;;;;19.27;100.00;63991.03;5110684;28;20249;-79
2022/06/16 06:33:10;;;;;;;21.25;14.55;;;;;;;19.40;100.00;64004.59;5110532;28;20204;-78
2022/06/16 06:35:37;;;;;;;18.25;14.38;;;;;;;19.61;100.00;64022.88;5094856;28;20234;-79
2022/06/16 06:38:04;;;;;;;19.58;13.95;;;;;;;20.03;100.00;64069.81;5099834;28;20199;-79
2022/06/16 06:40:34;;;;;;;21.65;14.18;;;;;;;20.08;100.00;64077.59;5106538;28;20250;-80
2022/06/16 06:43:02;;;;;;;18.58;14.65;;;;;;;20.25;100.00;64097.41;5103531;28;20207;-79
2022/06/16 06:45:30;;;;;;;18.67;14.20;;;;;;;20.28;100.00;64095.91;5110487;28;20254;-79
2022/06/16 06:47:57;;;;;;;17.85;14.40;;;;;;;20.20;100.00;64092.72;5107791;28;20284;-79
2022/06/16 06:50:27;;;;;;;24.92;15.27;;;;;;;19.77;100.00;64042.16;5109074;28;20268;-80
2022/06/16 06:52:54;;;;;;;17.13;15.18;;;;;;;20.07;100.00;64073.44;5110088;28;20195;-79
2022/06/16 06:55:22;;;;;;;21.42;15.43;;;;;;;20.37;100.00;64102.19;5115080;28;20225;-79
2022/06/16 06:57:51;;;;;;;20.00;14.60;;;;;;;20.50;100.00;64124.03;5112097;28;20199;-78
2022/06/16 07:00:19;;;;;;;17.27;13.90;;;;;;;20.87;100.00;64156.97;5109770;28;20212;-79
2022/06/16 07:02:47;;;;;;;15.55;13.05;;;;;;;21.37;95.52;64216.44;5108542;28;20272;-78
2022/06/16 07:05:15;;;;;;;23.08;14.25;;;;;;;21.47;94.14;64219.63;5100661;28;20540;-79
2022/06/16 07:07:42;;;;;;;16.58;13.77;;;;;;;21.38;92.90;64212.31;5106749;28;20285;-79
2022/06/16 07:10:10;;;;;;;17.30;14.07;;;;;;;21.57;92.95;64230.09;5109416;28;20274;-79
2022/06/16 07:12:37;;;;;;;16.95;13.73;;;;;;;22.18;91.32;64295.38;5110107;28;20203;-79
2022/06/16 07:15:06;;;;;;;15.85;12.48;;;;;;;22.37;88.53;64320.44;5108070;28;20226;-78
2022/06/16 07:17:33;;;;;;;16.80;13.95;;;;;;;22.30;87.44;64305.88;5110140;28;20211;-79
2022/06/16 07:20:02;;;;;;;17.98;13.85;;;;;;;22.72;84.51;64355.00;5109529;28;20256;-79
2022/06/16 07:22:29;;;;;;;19.02;14.27;;;;;;;22.14;84.34;64293.81;5110221;28;20206;-79
2022/06/16 07:24:56;;;;;;;17.45;14.23;;;;;;;22.16;87.40;64293.81;5106769;28;20219;-81
2022/06/16 07:27:23;;;;;;;16.05;13.02;;;;;;;22.49;83.18;64328.31;5110019;28;20207;-79
2022/06/16 07:29:50;;;;;;;19.08;14.13;;;;;;;23.06;81.23;64384.28;5109795;28;20282;-79
2022/06/16 07:32:18;;;;;;;16.60;12.48;;;;;;;23.40;77.08;64425.59;5109242;28;20392;-79
2022/06/16 07:34:45;;;;;;;17.77;12.65;;;;;;;23.76;71.33;64460.66;5101449;28;20257;-79
2022/06/16 07:37:14;;;;;;;17.67;13.32;;;;;;;23.65;72.39;64448.63;5110154;28;20201;-80
2022/06/16 07:39:42;;;;;;;16.67;13.23;;;;;;;23.90;70.14;64474.81;5110446;28;20258;-80
2022/06/16 07:42:09;;;;;;;17.33;12.30;;;;;;;23.86;69.95;64470.63;5107436;28;20199;-79
2022/06/16 07:44:37;;;;;;;13.55;12.15;;;;;;;23.78;69.27;64462.25;5108825;28;20227;-79
2022/06/16 07:47:04;;;;;;;17.60;14.05;;;;;;;23.37;70.87;64417.25;5109972;28;20201;-80
2022/06/16 07:49:32;;;;;;;16.90;13.73;;;;;;;23.45;72.30;64425.13;5110204;28;20329;-79
2022/06/16 07:52:00;;;;;;;14.68;12.45;;;;;;;23.01;74.95;64384.78;5105702;28;20207;-79
2022/06/16 07:54:29;;;;;;;15.55;12.75;;;;;;;23.13;76.43;64394.75;5109260;28;20230;-79
2022/06/16 07:56:57;;;;;;;20.88;15.07;;;;;;;23.35;73.94;64422.97;5110089;28;20199;-79
2022/06/16 07:59:24;;;;;;;16.00;13.00;;;;;;;23.66;69.06;64447.59;5112259;28;20219;-79
2022/06/16 08:01:51;;;;;;;16.13;12.98;;;;;;;23.19;68.07;64401.03;5106596;28;20207;-79
2022/06/16 08:04:18;;;;;;;17.08;12.77;;;;;;;22.89;70.83;64370.16;5103426;28;20261;-81
2022/06/16 08:06:45;;;;;;;17.52;13.02;;;;;;;23.16;70.03;64395.28;5089363;28;20501;-80
2022/06/16 08:09:12;;;;;;;16.13;13.38;;;;;;;23.19;71.27;64401.03;5090579;28;20235;-79
2022/06/16 08:14:25;;;;;;;14.43;12.77;;;;;;;23.20;69.34;64404.13;5096380;28;20269;-78
2022/06/16 08:16:53;;;;;;;15.55;12.73;;;;;;;23.03;68.66;64384.28;5112600;28;20278;-78
2022/06/16 08:19:20;;;;;;;12.95;11.10;;;;;;;23.32;67.34;64417.22;5109020;28;20577;-78
2022/06/16 08:21:47;;;;;;;15.30;13.50;;;;;;;22.77;67.72;64357.63;5107566;28;20199;-77
2022/06/16 08:24:14;;;;;;;13.25;11.90;;;;;;;22.84;68.25;64367.00;5107889;28;20215;-78
2022/06/16 08:26:43;;;;;;;16.02;13.20;;;;;;;22.71;69.28;64348.75;5106605;28;20249;-79
2022/06/16 08:29:16;;;;;;;17.23;12.55;;;;;;;22.72;70.17;64357.06;5104741;28;20265;-78
2022/06/16 08:31:43;;;;;;;14.25;11.93;;;;;;;22.87;67.97;64367.53;5106076;28;20469;-78
2022/06/16 08:34:11;;;;;;;15.25;12.38;;;;;;;22.57;68.39;64336.69;5105728;28;20500;-78
2022/06/16 08:36:38;;;;;;;18.48;13.13;;;;;;;22.46;70.14;64324.66;5106041;28;20195;-79
2022/06/16 08:39:06;;;;;;;15.20;13.27;;;;;;;22.95;70.02;64375.91;5105520;28;20192;-79
2022/06/16 08:41:38;;;;;;;12.73;11.43;;;;;;;23.06;66.51;64384.28;5106593;28;20202;-78
2022/06/16 08:44:13;;;;;;;13.40;12.00;;;;;;;23.31;64.23;64413.06;5106093;28;20203;-79
2022/06/16 08:46:46;;;;;;;15.45;11.82;;;;;;;23.36;63.67;64418.81;5106103;28;20199;-79
2022/06/16 08:49:25;;;;;;;18.48;12.38;;;;;;;23.64;63.47;64452.78;5105200;28;20280;-78
2022/06/16 08:52:03;;;;;;;14.63;13.00;;;;;;;23.49;65.87;64435.00;5105574;28;20203;-78
2022/06/16 08:54:45;;;;;;;16.75;12.52;;;;;;;23.69;61.81;64455.44;5105782;28;20241;-78
2022/06/16 08:57:21;;;;;;;12.98;11.70;;;;;;;23.74;62.59;64458.59;5106963;28;20191;-77
2022/06/16 08:59:53;;;;;;;13.55;12.15;;;;;;;22.96;64.75;64382.16;5106825;28;20258;-79
2022/06/16 09:02:28;;;;;;;17.02;11.70;;;;;;;23.22;64.58;64406.22;5087464;28;20242;-77
2022/06/16 09:05:02;;;;;;;13.52;11.45;;;;;;;23.00;65.15;64381.16;5089212;28;20215;-78
2022/06/16 09:07:42;;;;;;;14.02;12.48;;;;;;;22.63;65.13;64345.03;5088831;28;20480;-78
2022/06/16 09:10:24;;;;;;;16.98;13.82;;;;;;;22.19;68.14;64294.38;5103729;28;20238;-78
2022/06/16 09:13:09;;;;;;;13.73;12.32;;;;;;;22.63;65.92;64345.03;5108778;28;20206;-78
2022/06/16 09:15:43;;;;;;;14.38;11.50;;;;;;;22.96;63.25;64373.84;5108572;28;20225;-78
2022/06/16 09:18:38;;;;;;;13.52;11.35;;;;;;;22.76;62.33;64358.66;5109003;28;20215;-78
2022/06/16 09:21:15;;;;;;;12.20;10.88;;;;;;;23.34;59.36;64413.59;5108583;28;20291;-78
2022/06/16 09:24:05;;;;;;;12.35;10.93;;;;;;;23.80;57.18;64464.84;5107744;28;20230;-78
2022/06/16 09:26:40;;;;;;;14.23;11.10;;;;;;;24.10;55.60;64495.75;5106911;28;20195;-78
2022/06/16 09:29:12;;;;;;;15.75;12.40;;;;;;;24.36;55.13;64522.97;5107246;28;20222;-78
2022/06/16 09:31:46;;;;;;;12.48;10.60;;;;;;;24.52;54.15;64536.59;5104893;28;20208;-78
2022/06/16 09:34:19;;;;;;;12.70;11.40;;;;;;;24.91;52.87;64580.59;5106196;28;20225;-78
2022/06/16 09:36:53;;;;;;;15.75;11.60;;;;;;;25.21;51.75;64616.16;5107090;28;20263;-78
2022/06/16 09:39:23;;;;;;;11.27;10.20;;;;;;;25.14;50.33;64607.28;5105943;28;20215;-77
2022/06/16 09:44:52;;;;;;;15.05;10.70;;;;;;;24.71;51.74;64562.22;5093337;28;20219;-79
2022/06/16 09:47:28;;;;;;;12.60;10.50;;;;;;;24.44;52.23;64531.34;5087438;28;20203;-78
2022/06/16 09:50:01;;;;;;;13.80;10.23;;;;;;;24.53;52.31;64537.63;5105151;28;20227;-79
2022/06/16 09:52:34;;;;;;;11.90;10.13;;;;;;;24.80;52.60;64571.66;5086107;28;20195;-79
2022/06/16 09:55:06;;;;;;;10.80;9.73;;;;;;;24.92;49.71;64579.00;5099037;28;20219;-78
2022/06/16 09:57:41;;;;;;;9.82;8.82;;;;;;;24.97;47.91;64583.75;5105470;28;20187;-77
2022/06/16 10:00:12;;;;;;;15.10;9.18;;;;;;;24.90;48.85;64579.53;5106689;28;20271;-78
2022/06/16 10:02:45;;;;;;;11.32;10.23;;;;;;;24.65;50.65;64553.34;5115266;28;20191;-78
2022/06/16 10:05:16;;;;;;;12.80;10.55;;;;;;;24.85;50.90;64571.69;5115947;28;20307;-77
2022/06/16 10:07:51;;;;;;;11.20;10.10;;;;;;;24.76;50.01;64566.94;5108809;28;20199;-79
2022/06/16 10:10:23;;;;;;;10.85;9.68;;;;;;;24.71;48.49;64554.41;5100913;28;20549;-78
2022/06/16 10:12:56;;;;;;;12.32;10.73;;;;;;;24.80;50.29;64571.66;5108712;28;20191;-77
2022/06/16 10:15:30;;;;;;;12.18;10.57;;;;;;;24.87;50.97;64575.84;5109983;28;20215;-78
2022/06/16 10:17:59;;;;;;;11.93;10.70;;;;;;;25.02;50.15;64594.19;5109337;28;20186;-77
2022/06/16 10:20:27;;;;;;;10.27;9.32;;;;;;;25.40;49.33;64628.81;5108207;28;20234;-78
2022/06/16 10:22:59;;;;;;;11.70;10.63;;;;;;;25.46;48.24;64635.06;5108433;28;20207;-79
2022/06/16 10:25:33;;;;;;;12.75;11.23;;;;;;;25.71;50.53;64666.50;5109401;28;20516;-79
2022/06/16 10:28:05;;;;;;;10.07;9.07;;;;;;;25.87;48.03;64683.25;5108634;28;20203;-78
2022/06/16 10:30:35;;;;;;;11.13;9.93;;;;;;;26.02;47.88;64698.47;5108657;28;20302;-78
2022/06/16 10:33:12;;;;;;;11.88;10.13;;;;;;;25.99;46.01;64695.84;5088793;28;20222;-79
2022/06/16 10:35:44;;;;;;;10.90;9.90;;;;;;;26.06;45.38;64700.59;5089100;28;20215;-78
2022/06/16 10:38:12;;;;;;;10.65;9.68;;;;;;;26.39;44.93;64739.88;5088269;28;20203;-78
2022/06/16 10:40:41;;;;;;;11.15;10.00;;;;;;;25.73;45.96;64665.47;5102257;28;20550;-78
2022/06/16 10:43:13;;;;;;;11.13;10.02;;;;;;;25.31;47.40;64621.97;5108478;28;20245;-78
2022/06/16 10:45:54;;;;;;;11.57;8.98;;;;;;;25.33;46.99;64626.66;5109105;28;20223;-78
2022/06/16 10:48:29;;;;;;;12.48;10.38;;;;;;;25.35;47.96;64623.53;5108328;28;20262;-79
2022/06/16 10:51:07;;;;;;;10.00;9.00;;;;;;;25.48;46.54;64642.41;5105686;28;20230;-77
2022/06/16 10:53:37;;;;;;;9.77;8.77;;;;;;;25.37;46.96;64632.97;5110716;28;20188;-78
2022/06/16 10:56:10;;;;;;;10.75;9.75;;;;;;;24.93;47.10;64585.28;5110099;28;20222;-78
2022/06/16 10:58:46;;;;;;;10.02;9.13;;;;;;;25.41;46.51;64631.91;5108392;28;20199;-78
2022/06/16 11:01:17;;;;;;;12.55;10.45;;;;;;;25.57;48.59;64646.09;5109024;28;20574;-79
2022/06/16 11:03:47;;;;;;;10.18;9.18;;;;;;;25.37;48.49;64625.66;5111421;28;20277;-79
2022/06/16 11:06:16;;;;;;;12.80;10.18;;;;;;;25.39;48.79;64627.22;5109013;28;20253;-78
2022/06/16 11:08:48;;;;;;;10.98;9.95;;;;;;;25.39;49.25;64630.34;5107888;28;20370;-79
2022/06/16 11:11:20;;;;;;;12.40;11.25;;;;;;;25.26;50.22;64619.34;5107725;28;20207;-79
2022/06/16 11:13:50;;;;;;;11.48;10.18;;;;;;;25.56;47.04;64650.25;5108779;28;20191;-78
2022/06/16 11:16:27;;;;;;;10.95;9.93;;;;;;;26.12;45.33;64709.50;5107224;28;20215;-79
2022/06/16 11:18:58;;;;;;;10.40;9.50;;;;;;;25.95;45.47;64688.53;5087945;28;20188;-79
2022/06/16 11:21:31;;;;;;;9.98;9.07;;;;;;;25.50;46.23;64641.88;5088087;28;20226;-80
2022/06/16 11:24:06;;;;;;;10.93;9.88;;;;;;;25.79;48.04;64669.13;5089598;28;20192;-78
2022/06/16 11:26:36;;;;;;;11.70;10.50;;;;;;;26.25;49.20;64719.97;5104400;28;20237;-79
2022/06/16 11:29:21;;;;;;;12.35;10.50;;;;;;;26.53;49.63;64748.81;5110221;28;20227;-78
2022/06/16 11:32:02;;;;;;;10.55;9.65;;;;;;;26.79;48.10;64778.72;5096974;28;20199;-78
2022/06/16 11:34:37;;;;;;;10.23;9.30;;;;;;;26.87;46.44;64785.00;5091733;28;20220;-78
2022/06/16 11:37:21;;;;;;;11.15;8.93;;;;;;;27.12;43.77;64813.34;5089546;28;20195;-79
2022/06/16 11:40:03;;;;;;;11.32;10.23;;;;;;;27.08;42.64;64809.13;5090159;28;20223;-78
2022/06/16 11:42:50;;;;;;;9.77;8.85;;;;;;;27.36;42.48;64835.91;5107958;28;20539;-77
2022/06/16 11:45:24;;;;;;;9.95;9.05;;;;;;;27.02;42.69;64800.22;5107145;28;20220;-78
2022/06/16 11:47:59;;;;;;;10.27;9.25;;;;;;;27.23;41.55;64825.38;5107916;28;20197;-79